Latest Weather Observations for Griffith

IDN60801

Issued at 10:32 pm EST Thursday 27 April 2017 (issued every 30 minutes, with the page automatically refreshed every 10 minutes)

About weather observations | Map of weather stations | Latest weather observations for NSW | Other Formats
Station Details ID: 075041 Name: GRIFFITH AIRPORT AWS Lat: -34.25 Lon: 146.07 Height: 134.0 m
Data from the previous 72 hours. | See also: Recent months at Griffith
Date/Time
EST
Temp
°C
App
Temp
°C
Dew
Point
°C
Rel
Hum
%
Delta-T
°C
Wind Press
QNH
hPa
Press
MSL
hPa
Rain since
9am
mm
Dir  Spd
km/h
Gust
km/h
Spd
kts
Gust
kts
27/10:30pm 7.0 4.1 4.5 84 1.1 SW 9 11 5 6 1024.0 1023.7 0.0
27/10:00pm 7.4 4.5 4.5 82 1.3 SW 9 11 5 6 1024.0 1023.7 0.0
27/09:30pm 7.6 4.7 4.7 82 1.3 WSW 9 11 5 6 1023.8 1023.5 0.0
27/09:00pm 7.7 5.1 4.3 79 1.5 WSW 7 11 4 6 1023.7 1023.4 0.0
27/08:30pm 8.7 5.8 4.5 75 1.9 SW 9 11 5 6 1023.4 1023.2 0.0
27/08:00pm 9.4 5.7 4.6 72 2.1 WSW 13 13 7 7 1023.1 1022.9 0.0
27/07:30pm 10.7 7.0 4.4 65 2.8 SW 13 17 7 9 1022.7 1022.5 0.0
27/07:00pm 11.0 7.2 4.0 62 3.1 SW 13 19 7 10 1022.5 1022.3 0.0
27/06:30pm 11.8 6.9 4.1 59 3.5 SSW 19 26 10 14 1022.4 1022.2 0.0
27/06:00pm 12.4 7.5 3.9 56 3.8 SSW 19 24 10 13 1022.2 1022.0 0.0
27/05:30pm 12.9 7.0 3.8 54 4.1 SSW 24 35 13 19 1021.9 1021.7 0.0
27/05:00pm 13.1 6.8 3.7 53 4.2 SSW 26 39 14 21 1022.0 1021.8 0.0
27/04:30pm 14.0 7.3 3.5 49 4.8 SSW 28 46 15 25 1021.6 1021.4 0.0
27/04:00pm 14.0 6.5 3.2 48 4.9 SSW 32 41 17 22 1021.0 1020.8 0.0
27/03:30pm 15.4 8.6 2.9 43 5.7 SSW 28 35 15 19 1020.7 1020.5 0.0
27/03:01pm 14.2 7.3 2.8 46 5.1 SSW 28 46 15 25 1020.5 1020.3 0.0
27/03:00pm 14.3 7.0 2.5 45 5.2 SSW 30 46 16 25 1020.5 1020.3 0.0
27/02:53pm 15.2 8.3 2.4 42 5.7 SSW 28 46 15 25 1020.5 1020.3 0.0
27/02:30pm 14.9 7.3 3.1 45 5.4 SSW 32 46 17 25 1020.3 1020.1 0.0
27/02:00pm 15.3 9.0 3.5 45 5.4 SSW 26 39 14 21 1020.3 1020.1 0.0
27/01:30pm 14.7 7.4 2.6 44 5.4 SSW 30 44 16 24 1020.5 1020.3 0.0
27/01:00pm 14.6 7.1 3.4 47 5.1 SSW 32 43 17 23 1020.7 1020.5 0.0
27/12:30pm 14.6 8.7 4.0 49 4.9 S 24 39 13 21 1021.2 1021.0 0.0
27/12:00pm 13.5 6.8 3.6 51 4.5 SSW 28 39 15 21 1021.6 1021.4 0.0
27/11:30am 13.0 6.8 4.4 56 4.0 SSW 26 35 14 19 1021.9 1021.7 0.0
27/11:00am 12.5 7.0 5.9 64 3.1 SSW 24 35 13 19 1022.0 1021.8 0.0
27/10:30am 11.2 4.4 4.9 65 2.9 SSW 30 37 16 20 1022.2 1022.0 0.0
27/10:00am 10.9 5.3 5.4 69 2.5 SSW 24 35 13 19 1022.3 1022.1 0.0
27/09:30am 9.6 3.8 4.6 71 2.2 SSW 24 32 13 17 1022.3 1022.1 0.0
27/09:00am 8.8 3.1 4.8 76 1.8 SW 24 33 13 18 1022.1 1021.9 2.2
27/08:30am 7.6 2.2 4.6 81 1.3 SW 22 32 12 17 1022.0 1021.8 2.2
27/08:00am 6.5 1.0 4.2 85 1.0 SW 22 28 12 15 1021.4 1021.2 2.2
27/07:30am 5.6 0.1 3.8 88 0.8 SW 22 28 12 15 1020.9 1020.7 2.2
27/07:00am 5.2 0.5 3.4 88 0.8 SW 17 22 9 12 1020.4 1020.2 2.2
27/06:30am 5.5 0.3 3.5 87 0.8 SW 20 30 11 16 1020.2 1020.0 2.2
27/06:00am 5.7 -0.3 3.5 86 0.9 SW 24 32 13 17 1020.0 1019.8 2.2
27/05:30am 5.8 0.6 3.5 85 1.0 SW 20 28 11 15 1019.7 1019.5 2.2
27/05:00am 5.9 0.7 3.4 84 1.1 SW 20 28 11 15 1019.4 1019.2 2.2
27/04:30am 6.3 1.3 3.5 82 1.2 SW 19 24 10 13 1019.1 1018.9 2.2
27/04:00am 6.6 1.9 3.4 80 1.4 SW 17 22 9 12 1019.0 1018.8 2.2
27/03:30am 7.0 1.4 3.4 78 1.5 SW 22 30 12 16 1018.9 1018.7 2.2
27/03:00am 7.3 2.1 3.4 76 1.7 SW 20 26 11 14 1019.0 1018.8 2.2
27/02:30am 7.7 2.5 3.6 75 1.8 SW 20 28 11 15 1019.1 1018.9 2.2
27/02:00am 8.2 3.0 3.7 73 1.9 SW 20 30 11 16 1019.0 1018.8 2.2
27/01:30am 8.4 2.5 3.8 73 2.0 SW 24 30 13 16 1018.8 1018.6 2.2
27/01:00am 8.5 3.0 3.8 72 2.0 SW 22 32 12 17 1018.7 1018.5 2.2
27/12:30am 8.3 3.7 3.8 73 2.0 WSW 17 20 9 11 1018.9 1018.7 2.2
27/12:00am 8.7 3.7 3.5 70 2.3 SW 19 22 10 12 1018.8 1018.6 2.2
 
Date/Time
EST
Temp
°C
App
Temp
°C
Dew
Point
°C
Rel
Hum
%
Delta-T
°C
Wind Press
QNH
hPa
Press
MSL
hPa
Rain since
9am
mm
Dir  Spd
km/h
Gust
km/h
Spd
kts
Gust
kts
26/11:30pm 8.4 3.3 4.0 74 1.9 SW 20 28 11 15 1018.6 1018.4 2.2
26/11:00pm 8.0 3.5 4.4 78 1.6 SW 17 22 9 12 1018.5 1018.2 2.2
26/10:30pm 7.9 3.7 3.9 76 1.7 WSW 15 20 8 11 1018.5 1018.2 2.2
26/10:00pm 8.8 3.8 3.4 69 2.3 SW 19 22 10 12 1018.3 1018.0 2.2
26/09:30pm 9.6 3.9 3.1 64 2.8 SSW 22 32 12 17 1018.2 1017.9 2.2
26/09:00pm 10.0 4.4 3.5 64 2.8 SSW 22 32 12 17 1017.8 1017.5 2.2
26/08:30pm 10.1 5.1 4.5 68 2.5 SW 20 28 11 15 1017.5 1017.2 2.2
26/08:00pm 10.4 5.4 4.5 67 2.7 SW 20 30 11 16 1017.0 1016.7 2.2
26/07:30pm 10.9 5.5 4.6 65 2.9 SW 22 30 12 16 1016.8 1016.5 2.2
26/07:00pm 10.8 5.9 4.9 67 2.7 SW 20 24 11 13 1016.3 1016.0 2.2
26/06:30pm 11.3 5.9 4.5 63 3.1 SW 22 33 12 18 1015.6 1015.4 2.2
26/06:00pm 12.0 5.8 4.2 59 3.5 SW 26 33 14 18 1014.9 1014.7 2.2
26/05:30pm 12.4 5.6 5.1 61 3.4 SW 30 41 16 22 1014.2 1014.0 2.2
26/05:05pm 13.7 7.3 5.3 57 4.0 SW 28 46 15 25 1013.6 1013.4 2.2
26/05:00pm 13.7 7.7 7.0 64 3.3 WSW 28 37 15 20 1013.5 1013.3 2.2
26/04:30pm 13.2 7.2 7.0 66 3.0 SW 28 39 15 21 1013.0 1012.8 2.2
26/04:00pm 14.0 7.5 6.6 61 3.6 SSW 30 43 16 23 1012.5 1012.3 2.2
26/03:40pm 14.0 8.1 7.5 65 3.2 SW 28 46 15 25 1012.0 1011.7 2.2
26/03:30pm 13.3 7.9 9.4 77 2.0 SSW 28 37 15 20 1012.1 1011.8 2.2
26/03:16pm 11.3 4.4 7.4 77 1.9 SSW 33 56 18 30 1012.0 1011.7 2.2
26/03:05pm 15.2 8.4 7.5 60 3.8 SSW 33 52 18 28 1011.7 1011.4 1.2
26/03:00pm 14.6 7.1 6.4 58 4.0 SSW 35 52 19 28 1011.6 1011.3 1.2
26/02:30pm 14.6 8.0 7.6 63 3.5 SW 32 52 17 28 1011.0 1010.7 1.2
26/02:28pm 15.4 9.0 9.3 67 3.2 SW 33 52 18 28 1010.9 1010.6 1.2
26/02:00pm 13.7 7.7 8.7 72 2.5 SSW 30 41 16 22 1010.7 1010.4 1.2
26/01:35pm 13.5 7.1 8.4 71 2.6 SW 32 52 17 28 1010.3 1010.0 1.2
26/01:30pm 13.5 7.0 8.8 73 2.4 SW 33 48 18 26 1010.3 1010.0 1.2
26/01:06pm 11.3 4.9 8.7 84 1.3 SW 32 50 17 27 1010.4 1010.1 1.2
26/01:00pm 11.3 3.8 8.0 80 1.6 WSW 37 50 20 27 1010.5 1010.2 1.2
26/12:30pm 13.5 6.3 9.2 75 2.2 WSW 37 54 20 29 1010.1 1009.8 0.6
26/12:11pm 12.9 6.5 9.4 79 1.8 WSW 33 54 18 29 1010.2 1009.9 0.6
26/12:00pm 11.6 4.7 8.8 83 1.4 WSW 35 44 19 24 1010.2 1009.9 0.6
26/11:30am 11.9 6.1 9.3 84 1.3 WSW 30 39 16 21 1010.2 1009.9 0.4
26/11:00am 11.0 5.0 8.8 86 1.1 WSW 30 44 16 24 1010.2 1009.9 0.4
26/10:30am 12.3 8.0 10.7 90 0.8 WSW 24 32 13 17 1010.2 1009.9 0.2
26/10:00am 11.2 7.2 10.4 95 0.4 W 22 35 12 19 1010.2 1009.9 0.2
26/09:30am 9.8 6.4 9.2 96 0.3 W 17 20 9 11 1010.0 1009.7 0.2
26/09:00am 9.6 5.5 8.8 95 0.4 WSW 20 28 11 15 1009.9 1009.6 3.0
26/08:30am 10.0 3.0 8.3 89 0.8 WSW 35 48 19 26 1009.8 1009.5 1.2
26/08:05am 10.9 3.0 8.0 82 1.4 WSW 39 61 21 33 1009.4 1009.1 0.8
26/08:00am 11.8 5.9 9.0 83 1.4 W 30 54 16 29 1009.4 1009.1 0.8
26/07:59am 12.0 6.6 9.6 85 1.2 W 28 54 15 29 1009.4 1009.1 0.8
26/07:30am 12.9 9.3 11.8 93 0.6 WNW 22 32 12 17 1008.6 1008.3 0.8
26/07:00am 13.2 10.1 12.1 93 0.6 WNW 20 28 11 15 1008.3 1008.0 0.6
26/06:30am 13.0 10.8 12.2 95 0.4 WNW 15 22 8 12 1008.2 1007.9 0.6
26/06:00am 12.9 10.4 12.3 96 0.3 WNW 17 20 9 11 1007.9 1007.7 0.6
26/05:30am 12.9 11.2 12.6 98 0.2 WNW 13 19 7 10 1008.1 1007.8 0.6
26/05:00am 12.8 11.4 12.3 97 0.3 NW 11 15 6 8 1007.9 1007.7 0.6
26/04:30am 12.9 9.9 12.0 94 0.5 NW 19 26 10 14 1008.6 1008.3 0.2
26/04:00am 12.2 11.6 11.6 96 0.3 WNW 6 11 3 6 1007.8 1007.6 0.2
26/03:30am 12.3 10.5 12.1 99 0.1 N 13 19 7 10 1008.4 1008.1 0.2
26/03:00am 11.4 10.1 11.2 99 0.1 N 9 13 5 7 1008.8 1008.5 0.2
26/02:30am 11.7 10.1 11.5 99 0.1 N 11 13 6 7 1009.1 1008.8 0.2
26/02:00am 12.1 11.0 11.9 99 0.1 NNW 9 13 5 7 1009.3 1009.0 0.2
26/01:30am 11.8 10.2 11.6 99 0.1 N 11 11 6 6 1009.3 1009.0 0.2
26/01:00am 11.7 11.0 11.5 99 0.1 N 6 11 3 6 1009.5 1009.2 0.2
26/12:30am 11.9 12.3 11.3 96 0.3 CALM 0 0 0 0 1009.6 1009.3 0.2
26/12:00am 13.1 13.9 12.6 97 0.3 CALM 0 0 0 0 1009.7 1009.4 0.2
 
Date/Time
EST
Temp
°C
App
Temp
°C
Dew
Point
°C
Rel
Hum
%
Delta-T
°C
Wind Press
QNH
hPa
Press
MSL
hPa
Rain since
9am
mm
Dir  Spd
km/h
Gust
km/h
Spd
kts
Gust
kts
25/11:30pm 13.6 13.3 13.4 99 0.1 W 7 11 4 6 1010.2 1009.9 0.2
25/11:00pm 13.0 12.5 12.8 99 0.1 NNW 7 9 4 5 1010.1 1009.8 0.2
25/10:30pm 12.4 11.2 11.5 94 0.5 NNW 9 11 5 6 1010.2 1009.9 0.2
25/10:00pm 12.7 11.5 11.6 93 0.6 NNW 9 13 5 7 1010.2 1009.9 0.2
25/09:41pm 13.8 12.9 12.7 93 0.6 WNW 9 9 5 5 1010.2 1009.9 0.2
25/09:30pm 13.7 12.8 12.6 93 0.6 NW 9 9 5 5 1010.3 1010.0 0.2
25/09:22pm 13.7 13.1 12.4 92 0.7 NW 7 9 4 5 1010.2 1009.9 0.2
25/09:00pm 14.0 13.3 12.0 88 1.1 WNW 7 7 4 4 1010.3 1010.0 0.2
25/08:30pm 14.8 14.4 13.0 89 1.0 NW 7 9 4 5 1010.3 1010.0 0.2
25/08:00pm 15.5 14.5 13.3 87 1.2 NW 11 13 6 7 1010.2 1009.9 0.2
25/07:30pm 16.5 15.8 13.2 81 1.9 W 9 13 5 7 1009.9 1009.6 0.2
25/07:00pm 17.3 16.0 13.8 80 2.0 W 13 17 7 9 1009.8 1009.5 0.2
25/06:30pm 17.7 16.9 14.0 79 2.1 W 11 13 6 7 1009.5 1009.2 0.2
25/06:00pm 18.2 17.2 13.3 73 2.8 W 11 15 6 8 1009.2 1008.9 0.2
25/05:30pm 19.6 17.9 13.5 68 3.5 WSW 15 20 8 11 1008.9 1008.6 0.2
25/05:00pm 20.7 18.0 12.9 61 4.5 W 19 26 10 14 1008.8 1008.5 0.2
25/04:30pm 21.2 17.6 12.9 59 4.8 W 24 37 13 20 1008.8 1008.5 0.2
25/04:00pm 21.5 18.0 13.4 60 4.7 W 24 33 13 18 1008.8 1008.5 0.2
25/03:30pm 21.4 18.4 13.8 62 4.4 W 22 33 12 18 1008.8 1008.5 0.2
25/03:00pm 20.9 18.2 14.5 67 3.8 W 22 30 12 16 1008.9 1008.6 0.2
25/02:30pm 20.1 16.6 14.5 70 3.3 W 26 35 14 19 1009.0 1008.7 0.2
25/02:00pm 20.0 16.8 15.2 74 2.8 W 26 37 14 20 1009.2 1008.9 0.2
25/01:30pm 19.7 16.4 14.9 74 2.8 WSW 26 35 14 19 1009.4 1009.1 0.2
25/01:00pm 19.7 17.2 16.2 80 2.1 WSW 24 33 13 18 1009.7 1009.4 0.2
25/12:40pm 20.1 17.3 17.3 84 1.7 W 28 35 15 19 1009.8 1009.5 0.2
25/12:30pm 19.1 16.4 17.6 91 0.9 W 28 37 15 20 1009.9 1009.6 0.2
25/12:00pm 18.4 16.4 18.2 99 0.1 WNW 26 32 14 17 1010.2 1009.9 0.0
25/11:40am 18.2 16.5 18.0 99 0.1 NW 24 33 13 18 1010.5 1010.2 0.0
25/11:30am 17.7 16.1 17.5 99 0.1 NW 22 32 12 17 1010.6 1010.3 0.0
25/11:00am 17.7 14.4 16.9 95 0.5 NW 30 37 16 20 1010.8 1010.5 0.0
25/10:56am 17.6 14.9 16.5 93 0.7 NW 26 37 14 20 1010.8 1010.5 0.0
25/10:55am 17.7 14.9 16.4 92 0.8 NW 26 37 14 20 1010.8 1010.5 0.0
25/10:54am 17.8 15.0 16.3 91 0.9 NW 26 37 14 20 1010.8 1010.5 0.0
25/10:30am 18.0 15.8 16.9 93 0.7 NW 24 39 13 21 1011.0 1010.7 0.0
25/10:00am 17.9 15.9 17.3 96 0.4 NW 24 33 13 18 1011.2 1010.9 0.0
25/09:30am 17.5 15.1 17.3 99 0.1 NW 26 33 14 18 1011.3 1011.0 0.0
25/09:00am 17.4 15.7 17.2 99 0.1 WNW 22 30 12 16 1011.2 1010.9 5.8
25/08:30am 17.5 13.9 17.3 99 0.1 NW 32 43 17 23 1011.1 1010.8 5.8
25/08:00am 17.2 13.9 17.0 99 0.1 NNW 30 43 16 23 1010.6 1010.3 5.8
25/07:49am 17.1 13.8 16.9 99 0.1 NNW 30 43 16 23 1010.4 1010.1 5.8
25/07:41am 16.9 14.2 16.7 99 0.1 N 26 37 14 20 1010.3 1010.0 5.6
25/07:30am 16.6 15.0 16.4 99 0.1 N 20 28 11 15 1010.4 1010.1 5.6
25/07:16am 16.4 15.6 16.2 99 0.1 NNW 15 19 8 10 1010.5 1010.2 5.6
25/07:00am 16.4 15.2 16.2 99 0.1 NNW 17 26 9 14 1010.8 1010.5 5.2
25/06:30am 16.7 14.8 15.2 91 0.9 NNW 19 24 10 13 1010.9 1010.6 2.0
25/06:00am 17.2 16.7 14.8 86 1.4 WNW 11 17 6 9 1010.8 1010.5 0.8
25/05:30am 18.0 17.3 14.3 79 2.1 WNW 11 17 6 9 1010.6 1010.3 0.0
25/05:00am 18.3 18.2 14.0 76 2.5 N 7 11 4 6 1010.3 1010.0 0.0
25/04:30am 17.9 19.1 15.0 83 1.7 N 2 7 1 4 1010.5 1010.2 0.0
25/04:00am 17.8 17.5 14.3 80 2.0 N 9 13 5 7 1010.7 1010.4 0.0
25/03:30am 18.6 16.5 13.7 73 2.8 N 17 22 9 12 1011.1 1010.8 0.0
25/03:00am 20.0 17.2 12.7 63 4.1 N 19 24 10 13 1011.4 1011.1 0.0
25/02:30am 20.3 17.4 12.8 62 4.3 N 20 28 11 15 1011.6 1011.3 0.0
25/02:00am 20.4 17.0 12.6 61 4.4 N 22 30 12 16 1011.8 1011.5 0.0
25/01:30am 20.6 17.7 12.8 61 4.4 N 20 30 11 16 1012.3 1012.1 0.0
25/01:00am 20.5 18.2 13.0 62 4.3 N 17 24 9 13 1012.7 1012.5 0.0
25/12:30am 20.5 18.7 13.2 63 4.2 NNE 15 20 8 11 1013.2 1013.0 0.0
25/12:00am 20.1 18.7 13.3 65 3.9 N 13 17 7 9 1013.7 1013.5 0.0
 
Date/Time
EST
Temp
°C
App
Temp
°C
Dew
Point
°C
Rel
Hum
%
Delta-T
°C
Wind Press
QNH
hPa
Press
MSL
hPa
Rain since
9am
mm
Dir  Spd
km/h
Gust
km/h
Spd
kts
Gust
kts
24/11:30pm 20.1 18.7 13.3 65 3.9 N 13 19 7 10 1014.1 1013.9 0.0
24/11:00pm 20.5 18.4 13.7 65 3.9 N 17 22 9 12 1014.6 1014.4 0.0

Other Formats:

Comma delimited format used in spreadsheet applications
http://www.bom.gov.au/fwo/IDN60801/IDN60801.95704.axf

JavaScript Object Notation format (JSON) in row-major order
http://www.bom.gov.au/fwo/IDN60801/IDN60801.95704.json